sensor_id;sensor_type;location;lat;lon;timestamp;P1;durP1;ratioP1;P2;durP2;ratioP2
21671;SDS011;10997;52.242;8.168;2023-09-19T00:04:35;13.38;;;5.20;;
21671;SDS011;10997;52.242;8.168;2023-09-19T00:09:39;14.73;;;4.93;;
21671;SDS011;10997;52.242;8.168;2023-09-19T00:14:40;12.23;;;4.00;;
21671;SDS011;10997;52.242;8.168;2023-09-19T00:19:41;9.45;;;3.90;;
21671;SDS011;10997;52.242;8.168;2023-09-19T00:24:42;10.45;;;3.83;;
21671;SDS011;10997;52.242;8.168;2023-09-19T00:29:43;11.25;;;3.50;;
21671;SDS011;10997;52.242;8.168;2023-09-19T00:34:44;12.02;;;3.70;;
21671;SDS011;10997;52.242;8.168;2023-09-19T00:39:44;10.60;;;2.92;;
21671;SDS011;10997;52.242;8.168;2023-09-19T00:44:46;12.75;;;3.08;;
21671;SDS011;10997;52.242;8.168;2023-09-19T00:49:47;12.15;;;3.58;;
21671;SDS011;10997;52.242;8.168;2023-09-19T00:54:52;13.38;;;3.47;;
21671;SDS011;10997;52.242;8.168;2023-09-19T00:59:54;14.95;;;3.53;;
21671;SDS011;10997;52.242;8.168;2023-09-19T01:04:56;13.05;;;3.67;;
21671;SDS011;10997;52.242;8.168;2023-09-19T01:09:57;15.45;;;3.58;;
21671;SDS011;10997;52.242;8.168;2023-09-19T01:15:21;16.65;;;3.40;;
21671;SDS011;10997;52.242;8.168;2023-09-19T01:20:47;14.88;;;3.80;;
21671;SDS011;10997;52.242;8.168;2023-09-19T01:26:42;10.93;;;3.35;;
21671;SDS011;10997;52.242;8.168;2023-09-19T01:31:57;12.65;;;3.45;;
21671;SDS011;10997;52.242;8.168;2023-09-19T01:37:01;11.18;;;3.40;;
21671;SDS011;10997;52.242;8.168;2023-09-19T01:42:05;14.35;;;3.28;;
21671;SDS011;10997;52.242;8.168;2023-09-19T01:47:22;13.50;;;3.70;;
21671;SDS011;10997;52.242;8.168;2023-09-19T01:52:28;13.50;;;3.25;;
21671;SDS011;10997;52.242;8.168;2023-09-19T02:02:46;15.05;;;3.92;;
21671;SDS011;10997;52.242;8.168;2023-09-19T02:07:47;18.58;;;3.95;;
21671;SDS011;10997;52.242;8.168;2023-09-19T02:12:49;18.92;;;4.00;;
21671;SDS011;10997;52.242;8.168;2023-09-19T02:17:50;17.25;;;4.00;;
21671;SDS011;10997;52.242;8.168;2023-09-19T02:22:51;12.98;;;3.53;;
21671;SDS011;10997;52.242;8.168;2023-09-19T02:27:52;13.77;;;3.78;;
21671;SDS011;10997;52.242;8.168;2023-09-19T02:32:54;13.77;;;3.67;;
21671;SDS011;10997;52.242;8.168;2023-09-19T02:37:54;14.07;;;3.47;;
21671;SDS011;10997;52.242;8.168;2023-09-19T02:42:55;14.63;;;3.75;;
21671;SDS011;10997;52.242;8.168;2023-09-19T02:47:56;16.60;;;4.53;;
21671;SDS011;10997;52.242;8.168;2023-09-19T02:52:57;15.32;;;3.75;;
21671;SDS011;10997;52.242;8.168;2023-09-19T02:57:58;16.02;;;4.05;;
21671;SDS011;10997;52.242;8.168;2023-09-19T03:02:58;22.05;;;4.00;;
21671;SDS011;10997;52.242;8.168;2023-09-19T03:07:59;16.02;;;4.40;;
21671;SDS011;10997;52.242;8.168;2023-09-19T03:13:03;19.83;;;4.57;;
21671;SDS011;10997;52.242;8.168;2023-09-19T03:18:04;17.20;;;4.43;;
21671;SDS011;10997;52.242;8.168;2023-09-19T03:23:05;15.98;;;4.60;;
21671;SDS011;10997;52.242;8.168;2023-09-19T03:28:06;14.60;;;4.15;;
21671;SDS011;10997;52.242;8.168;2023-09-19T03:33:07;12.00;;;4.00;;
21671;SDS011;10997;52.242;8.168;2023-09-19T03:38:08;21.73;;;4.82;;
21671;SDS011;10997;52.242;8.168;2023-09-19T03:43:08;23.17;;;4.28;;
21671;SDS011;10997;52.242;8.168;2023-09-19T03:48:09;18.23;;;4.22;;
21671;SDS011;10997;52.242;8.168;2023-09-19T03:53:10;14.30;;;4.00;;
21671;SDS011;10997;52.242;8.168;2023-09-19T03:58:11;17.35;;;4.28;;
21671;SDS011;10997;52.242;8.168;2023-09-19T04:03:12;17.85;;;4.85;;
21671;SDS011;10997;52.242;8.168;2023-09-19T04:08:19;22.90;;;4.63;;
21671;SDS011;10997;52.242;8.168;2023-09-19T04:13:19;12.38;;;3.80;;
21671;SDS011;10997;52.242;8.168;2023-09-19T04:18:20;18.40;;;5.18;;
21671;SDS011;10997;52.242;8.168;2023-09-19T04:23:24;15.45;;;3.90;;
21671;SDS011;10997;52.242;8.168;2023-09-19T04:28:25;22.10;;;3.83;;
21671;SDS011;10997;52.242;8.168;2023-09-19T04:33:27;26.33;;;3.95;;
21671;SDS011;10997;52.242;8.168;2023-09-19T04:38:28;17.40;;;3.70;;
21671;SDS011;10997;52.242;8.168;2023-09-19T04:43:29;17.05;;;3.78;;
21671;SDS011;10997;52.242;8.168;2023-09-19T04:48:30;13.50;;;4.05;;
21671;SDS011;10997;52.242;8.168;2023-09-19T04:53:31;17.77;;;3.38;;
21671;SDS011;10997;52.242;8.168;2023-09-19T04:58:32;22.05;;;4.32;;
21671;SDS011;10997;52.242;8.168;2023-09-19T05:03:32;15.40;;;3.83;;
21671;SDS011;10997;52.242;8.168;2023-09-19T05:08:33;18.80;;;4.00;;
21671;SDS011;10997;52.242;8.168;2023-09-19T05:13:34;31.15;;;5.05;;
21671;SDS011;10997;52.242;8.168;2023-09-19T05:18:34;14.98;;;3.95;;
21671;SDS011;10997;52.242;8.168;2023-09-19T05:23:35;17.15;;;3.58;;
21671;SDS011;10997;52.242;8.168;2023-09-19T05:28:37;16.52;;;3.30;;
21671;SDS011;10997;52.242;8.168;2023-09-19T05:33:37;16.45;;;3.42;;
21671;SDS011;10997;52.242;8.168;2023-09-19T05:38:38;21.05;;;4.05;;
21671;SDS011;10997;52.242;8.168;2023-09-19T05:43:41;20.30;;;4.97;;
21671;SDS011;10997;52.242;8.168;2023-09-19T05:48:41;19.50;;;4.32;;
21671;SDS011;10997;52.242;8.168;2023-09-19T05:53:44;19.73;;;4.25;;
21671;SDS011;10997;52.242;8.168;2023-09-19T05:58:44;19.98;;;3.40;;
21671;SDS011;10997;52.242;8.168;2023-09-19T06:03:45;13.55;;;3.30;;
21671;SDS011;10997;52.242;8.168;2023-09-19T06:08:45;16.52;;;3.25;;
21671;SDS011;10997;52.242;8.168;2023-09-19T06:13:46;20.23;;;3.50;;
21671;SDS011;10997;52.242;8.168;2023-09-19T06:18:51;20.17;;;3.42;;
21671;SDS011;10997;52.242;8.168;2023-09-19T06:23:53;20.02;;;3.25;;
21671;SDS011;10997;52.242;8.168;2023-09-19T06:28:53;26.05;;;3.88;;
21671;SDS011;10997;52.242;8.168;2023-09-19T06:33:55;13.93;;;3.20;;
21671;SDS011;10997;52.242;8.168;2023-09-19T06:38:56;21.77;;;4.25;;
21671;SDS011;10997;52.242;8.168;2023-09-19T06:43:56;18.50;;;4.05;;
21671;SDS011;10997;52.242;8.168;2023-09-19T06:48:57;15.50;;;3.53;;
21671;SDS011;10997;52.242;8.168;2023-09-19T06:53:58;13.82;;;3.28;;
21671;SDS011;10997;52.242;8.168;2023-09-19T06:58:58;13.40;;;3.22;;
21671;SDS011;10997;52.242;8.168;2023-09-19T07:03:59;17.15;;;2.63;;
21671;SDS011;10997;52.242;8.168;2023-09-19T07:09:00;15.05;;;2.80;;
21671;SDS011;10997;52.242;8.168;2023-09-19T07:14:00;14.60;;;3.15;;
21671;SDS011;10997;52.242;8.168;2023-09-19T07:19:03;12.52;;;2.80;;
21671;SDS011;10997;52.242;8.168;2023-09-19T07:24:03;15.00;;;2.50;;
21671;SDS011;10997;52.242;8.168;2023-09-19T07:29:04;10.65;;;2.97;;
21671;SDS011;10997;52.242;8.168;2023-09-19T07:34:06;15.77;;;2.90;;
21671;SDS011;10997;52.242;8.168;2023-09-19T07:39:08;15.57;;;3.17;;
21671;SDS011;10997;52.242;8.168;2023-09-19T07:44:08;13.25;;;2.78;;
21671;SDS011;10997;52.242;8.168;2023-09-19T07:49:12;13.25;;;2.95;;
21671;SDS011;10997;52.242;8.168;2023-09-19T07:54:13;12.88;;;2.72;;
21671;SDS011;10997;52.242;8.168;2023-09-19T07:59:14;11.43;;;2.53;;
21671;SDS011;10997;52.242;8.168;2023-09-19T08:04:16;13.65;;;2.72;;
21671;SDS011;10997;52.242;8.168;2023-09-19T08:09:17;13.25;;;2.90;;
21671;SDS011;10997;52.242;8.168;2023-09-19T08:14:20;13.52;;;2.80;;
21671;SDS011;10997;52.242;8.168;2023-09-19T08:19:22;14.93;;;3.60;;
21671;SDS011;10997;52.242;8.168;2023-09-19T08:24:27;9.80;;;3.00;;
21671;SDS011;10997;52.242;8.168;2023-09-19T08:29:29;17.92;;;3.72;;
21671;SDS011;10997;52.242;8.168;2023-09-19T08:34:30;13.15;;;3.00;;
21671;SDS011;10997;52.242;8.168;2023-09-19T08:39:33;13.15;;;2.90;;
21671;SDS011;10997;52.242;8.168;2023-09-19T08:44:37;12.68;;;2.85;;
21671;SDS011;10997;52.242;8.168;2023-09-19T08:50:04;9.77;;;2.70;;
21671;SDS011;10997;52.242;8.168;2023-09-19T08:55:14;16.88;;;3.28;;
21671;SDS011;10997;52.242;8.168;2023-09-19T09:00:21;13.25;;;2.80;;
21671;SDS011;10997;52.242;8.168;2023-09-19T09:05:23;15.88;;;2.90;;
21671;SDS011;10997;52.242;8.168;2023-09-19T09:10:24;13.48;;;3.35;;
21671;SDS011;10997;52.242;8.168;2023-09-19T09:15:25;13.95;;;3.53;;
21671;SDS011;10997;52.242;8.168;2023-09-19T09:20:29;13.63;;;3.15;;
21671;SDS011;10997;52.242;8.168;2023-09-19T09:30:50;10.65;;;2.63;;
21671;SDS011;10997;52.242;8.168;2023-09-19T09:35:55;14.45;;;3.03;;
21671;SDS011;10997;52.242;8.168;2023-09-19T09:40:58;11.90;;;3.00;;
21671;SDS011;10997;52.242;8.168;2023-09-19T09:46:12;16.67;;;3.13;;
21671;SDS011;10997;52.242;8.168;2023-09-19T09:51:29;11.63;;;2.70;;
21671;SDS011;10997;52.242;8.168;2023-09-19T09:56:31;12.15;;;2.80;;
21671;SDS011;10997;52.242;8.168;2023-09-19T10:01:47;11.63;;;2.72;;
21671;SDS011;10997;52.242;8.168;2023-09-19T10:06:53;10.48;;;2.90;;
21671;SDS011;10997;52.242;8.168;2023-09-19T10:12:05;10.98;;;2.90;;
21671;SDS011;10997;52.242;8.168;2023-09-19T10:17:09;16.42;;;2.65;;
21671;SDS011;10997;52.242;8.168;2023-09-19T10:22:13;10.38;;;2.80;;
21671;SDS011;10997;52.242;8.168;2023-09-19T10:27:20;9.20;;;2.70;;
21671;SDS011;10997;52.242;8.168;2023-09-19T10:32:22;7.93;;;2.78;;
21671;SDS011;10997;52.242;8.168;2023-09-19T10:37:24;11.02;;;2.95;;
21671;SDS011;10997;52.242;8.168;2023-09-19T10:42:27;12.35;;;2.92;;
21671;SDS011;10997;52.242;8.168;2023-09-19T10:47:29;12.38;;;3.10;;
21671;SDS011;10997;52.242;8.168;2023-09-19T10:52:31;10.80;;;3.05;;
21671;SDS011;10997;52.242;8.168;2023-09-19T10:57:34;12.98;;;3.22;;
21671;SDS011;10997;52.242;8.168;2023-09-19T11:02:36;12.93;;;3.15;;
21671;SDS011;10997;52.242;8.168;2023-09-19T11:12:57;9.05;;;3.17;;
21671;SDS011;10997;52.242;8.168;2023-09-19T11:17:58;11.55;;;3.33;;
21671;SDS011;10997;52.242;8.168;2023-09-19T11:23:18;14.75;;;3.38;;
21671;SDS011;10997;52.242;8.168;2023-09-19T11:33:29;16.38;;;3.85;;
21671;SDS011;10997;52.242;8.168;2023-09-19T11:43:47;15.30;;;3.33;;
21671;SDS011;10997;52.242;8.168;2023-09-19T11:48:51;13.10;;;3.35;;
21671;SDS011;10997;52.242;8.168;2023-09-19T11:53:56;12.48;;;3.05;;
21671;SDS011;10997;52.242;8.168;2023-09-19T11:59:00;8.52;;;2.72;;
21671;SDS011;10997;52.242;8.168;2023-09-19T12:04:02;8.85;;;3.10;;
21671;SDS011;10997;52.242;8.168;2023-09-19T12:19:59;10.73;;;3.50;;
21671;SDS011;10997;52.242;8.168;2023-09-19T12:25:05;11.50;;;3.28;;
21671;SDS011;10997;52.242;8.168;2023-09-19T12:30:07;9.18;;;3.25;;
21671;SDS011;10997;52.242;8.168;2023-09-19T12:35:09;8.55;;;2.97;;
21671;SDS011;10997;52.242;8.168;2023-09-19T12:40:20;8.55;;;2.92;;
21671;SDS011;10997;52.242;8.168;2023-09-19T12:45:28;11.50;;;3.40;;
21671;SDS011;10997;52.242;8.168;2023-09-19T12:50:30;11.90;;;2.78;;
21671;SDS011;10997;52.242;8.168;2023-09-19T12:55:33;8.80;;;3.00;;
21671;SDS011;10997;52.242;8.168;2023-09-19T13:00:34;13.30;;;2.95;;
21671;SDS011;10997;52.242;8.168;2023-09-19T13:11:00;11.98;;;2.92;;
21671;SDS011;10997;52.242;8.168;2023-09-19T13:16:10;15.07;;;3.03;;
21671;SDS011;10997;52.242;8.168;2023-09-19T13:21:14;12.93;;;2.90;;
21671;SDS011;10997;52.242;8.168;2023-09-19T13:26:22;12.88;;;3.53;;
21671;SDS011;10997;52.242;8.168;2023-09-19T13:31:22;8.85;;;2.67;;
21671;SDS011;10997;52.242;8.168;2023-09-19T13:36:23;8.65;;;2.90;;
21671;SDS011;10997;52.242;8.168;2023-09-19T13:41:24;11.32;;;3.08;;
21671;SDS011;10997;52.242;8.168;2023-09-19T13:46:25;16.90;;;3.20;;
21671;SDS011;10997;52.242;8.168;2023-09-19T13:51:27;10.43;;;2.60;;
21671;SDS011;10997;52.242;8.168;2023-09-19T13:56:32;13.18;;;2.50;;
21671;SDS011;10997;52.242;8.168;2023-09-19T14:01:33;7.80;;;2.28;;
21671;SDS011;10997;52.242;8.168;2023-09-19T14:06:34;9.07;;;2.60;;
21671;SDS011;10997;52.242;8.168;2023-09-19T14:11:34;13.43;;;2.80;;
21671;SDS011;10997;52.242;8.168;2023-09-19T14:16:35;13.32;;;2.83;;
21671;SDS011;10997;52.242;8.168;2023-09-19T14:21:36;10.88;;;2.13;;
21671;SDS011;10997;52.242;8.168;2023-09-19T14:26:39;5.88;;;2.03;;
21671;SDS011;10997;52.242;8.168;2023-09-19T14:31:40;11.02;;;2.42;;
21671;SDS011;10997;52.242;8.168;2023-09-19T14:36:40;8.85;;;2.30;;
21671;SDS011;10997;52.242;8.168;2023-09-19T14:41:41;10.05;;;2.70;;
21671;SDS011;10997;52.242;8.168;2023-09-19T14:46:42;9.70;;;2.40;;
21671;SDS011;10997;52.242;8.168;2023-09-19T14:51:44;10.10;;;2.40;;
21671;SDS011;10997;52.242;8.168;2023-09-19T14:56:47;5.97;;;2.20;;
21671;SDS011;10997;52.242;8.168;2023-09-19T15:01:53;9.35;;;2.17;;
21671;SDS011;10997;52.242;8.168;2023-09-19T15:06:54;8.02;;;2.25;;
21671;SDS011;10997;52.242;8.168;2023-09-19T15:11:55;8.10;;;2.10;;
21671;SDS011;10997;52.242;8.168;2023-09-19T15:16:55;7.25;;;1.92;;
21671;SDS011;10997;52.242;8.168;2023-09-19T15:21:56;8.23;;;2.30;;
21671;SDS011;10997;52.242;8.168;2023-09-19T15:26:57;7.88;;;2.13;;
21671;SDS011;10997;52.242;8.168;2023-09-19T15:31:58;5.43;;;1.80;;
21671;SDS011;10997;52.242;8.168;2023-09-19T15:37:02;9.27;;;1.92;;
21671;SDS011;10997;52.242;8.168;2023-09-19T15:42:02;10.15;;;2.20;;
21671;SDS011;10997;52.242;8.168;2023-09-19T15:47:04;6.53;;;1.88;;
21671;SDS011;10997;52.242;8.168;2023-09-19T15:52:05;6.45;;;1.98;;
21671;SDS011;10997;52.242;8.168;2023-09-19T15:57:05;7.15;;;1.85;;
21671;SDS011;10997;52.242;8.168;2023-09-19T16:02:06;7.57;;;1.60;;
21671;SDS011;10997;52.242;8.168;2023-09-19T16:07:06;6.85;;;1.88;;
21671;SDS011;10997;52.242;8.168;2023-09-19T16:12:07;8.15;;;1.90;;
21671;SDS011;10997;52.242;8.168;2023-09-19T16:17:09;6.43;;;1.85;;
21671;SDS011;10997;52.242;8.168;2023-09-19T16:22:10;6.10;;;1.60;;
21671;SDS011;10997;52.242;8.168;2023-09-19T16:27:11;6.20;;;1.50;;
21671;SDS011;10997;52.242;8.168;2023-09-19T16:32:12;7.03;;;1.60;;
21671;SDS011;10997;52.242;8.168;2023-09-19T16:37:12;7.70;;;1.63;;
21671;SDS011;10997;52.242;8.168;2023-09-19T16:42:14;5.80;;;1.30;;
21671;SDS011;10997;52.242;8.168;2023-09-19T16:47:16;5.57;;;1.30;;
21671;SDS011;10997;52.242;8.168;2023-09-19T16:52:16;5.20;;;1.52;;
21671;SDS011;10997;52.242;8.168;2023-09-19T16:57:18;5.10;;;1.25;;
21671;SDS011;10997;52.242;8.168;2023-09-19T17:02:18;4.13;;;1.30;;
21671;SDS011;10997;52.242;8.168;2023-09-19T17:07:19;9.27;;;1.50;;
21671;SDS011;10997;52.242;8.168;2023-09-19T17:12:20;5.85;;;1.33;;
21671;SDS011;10997;52.242;8.168;2023-09-19T17:17:21;6.10;;;1.42;;
21671;SDS011;10997;52.242;8.168;2023-09-19T17:22:21;5.97;;;1.60;;
21671;SDS011;10997;52.242;8.168;2023-09-19T17:27:22;4.97;;;1.52;;
21671;SDS011;10997;52.242;8.168;2023-09-19T17:32:22;5.30;;;1.20;;
21671;SDS011;10997;52.242;8.168;2023-09-19T17:37:23;6.47;;;1.45;;
21671;SDS011;10997;52.242;8.168;2023-09-19T17:42:24;5.65;;;1.50;;
21671;SDS011;10997;52.242;8.168;2023-09-19T17:47:24;5.32;;;1.38;;
21671;SDS011;10997;52.242;8.168;2023-09-19T17:52:25;5.88;;;1.42;;
21671;SDS011;10997;52.242;8.168;2023-09-19T17:57:27;4.80;;;1.40;;
21671;SDS011;10997;52.242;8.168;2023-09-19T18:02:27;3.03;;;1.30;;
21671;SDS011;10997;52.242;8.168;2023-09-19T18:07:28;3.70;;;1.10;;
21671;SDS011;10997;52.242;8.168;2023-09-19T18:12:30;4.38;;;1.27;;
21671;SDS011;10997;52.242;8.168;2023-09-19T18:17:31;3.65;;;1.30;;
21671;SDS011;10997;52.242;8.168;2023-09-19T18:22:32;4.00;;;1.30;;
21671;SDS011;10997;52.242;8.168;2023-09-19T18:27:33;5.43;;;1.42;;
21671;SDS011;10997;52.242;8.168;2023-09-19T18:32:35;4.60;;;1.45;;
21671;SDS011;10997;52.242;8.168;2023-09-19T18:37:37;3.97;;;1.25;;
21671;SDS011;10997;52.242;8.168;2023-09-19T18:42:38;3.75;;;1.30;;
21671;SDS011;10997;52.242;8.168;2023-09-19T18:47:40;2.50;;;1.40;;
21671;SDS011;10997;52.242;8.168;2023-09-19T18:52:41;3.53;;;1.23;;
21671;SDS011;10997;52.242;8.168;2023-09-19T18:57:42;3.33;;;1.10;;
21671;SDS011;10997;52.242;8.168;2023-09-19T19:02:44;3.25;;;1.20;;
21671;SDS011;10997;52.242;8.168;2023-09-19T19:07:44;3.47;;;1.17;;
21671;SDS011;10997;52.242;8.168;2023-09-19T19:12:45;5.68;;;1.40;;
21671;SDS011;10997;52.242;8.168;2023-09-19T19:17:46;4.75;;;1.80;;
21671;SDS011;10997;52.242;8.168;2023-09-19T19:22:46;5.50;;;1.20;;
21671;SDS011;10997;52.242;8.168;2023-09-19T19:27:47;4.53;;;1.70;;
21671;SDS011;10997;52.242;8.168;2023-09-19T19:32:47;4.35;;;1.30;;
21671;SDS011;10997;52.242;8.168;2023-09-19T19:37:48;5.80;;;1.40;;
21671;SDS011;10997;52.242;8.168;2023-09-19T19:42:49;5.65;;;1.30;;
21671;SDS011;10997;52.242;8.168;2023-09-19T19:47:50;5.32;;;1.60;;
21671;SDS011;10997;52.242;8.168;2023-09-19T19:52:51;6.55;;;1.50;;
21671;SDS011;10997;52.242;8.168;2023-09-19T19:57:53;6.63;;;1.52;;
21671;SDS011;10997;52.242;8.168;2023-09-19T20:02:54;7.72;;;1.80;;
21671;SDS011;10997;52.242;8.168;2023-09-19T20:07:55;5.68;;;1.55;;
21671;SDS011;10997;52.242;8.168;2023-09-19T20:12:56;7.10;;;1.70;;
21671;SDS011;10997;52.242;8.168;2023-09-19T20:17:57;4.72;;;1.60;;
21671;SDS011;10997;52.242;8.168;2023-09-19T20:22:59;5.00;;;1.63;;
21671;SDS011;10997;52.242;8.168;2023-09-19T20:28:02;7.97;;;2.05;;
21671;SDS011;10997;52.242;8.168;2023-09-19T20:33:03;4.47;;;1.58;;
21671;SDS011;10997;52.242;8.168;2023-09-19T20:38:05;9.80;;;2.05;;
21671;SDS011;10997;52.242;8.168;2023-09-19T20:43:06;5.43;;;1.33;;
21671;SDS011;10997;52.242;8.168;2023-09-19T20:48:07;4.63;;;1.52;;
21671;SDS011;10997;52.242;8.168;2023-09-19T20:53:10;7.70;;;1.90;;
21671;SDS011;10997;52.242;8.168;2023-09-19T20:58:10;4.03;;;1.70;;
21671;SDS011;10997;52.242;8.168;2023-09-19T21:03:11;6.50;;;2.10;;
21671;SDS011;10997;52.242;8.168;2023-09-19T21:08:16;5.88;;;1.90;;
21671;SDS011;10997;52.242;8.168;2023-09-19T21:13:16;5.90;;;1.65;;
21671;SDS011;10997;52.242;8.168;2023-09-19T21:18:18;8.73;;;2.20;;
21671;SDS011;10997;52.242;8.168;2023-09-19T21:23:18;6.40;;;1.95;;
21671;SDS011;10997;52.242;8.168;2023-09-19T21:28:19;6.20;;;1.67;;
21671;SDS011;10997;52.242;8.168;2023-09-19T21:33:20;8.57;;;2.08;;
21671;SDS011;10997;52.242;8.168;2023-09-19T21:38:21;5.65;;;1.70;;
21671;SDS011;10997;52.242;8.168;2023-09-19T21:43:22;7.45;;;2.35;;
21671;SDS011;10997;52.242;8.168;2023-09-19T21:48:23;7.88;;;2.28;;
21671;SDS011;10997;52.242;8.168;2023-09-19T21:53:23;8.48;;;1.70;;
21671;SDS011;10997;52.242;8.168;2023-09-19T21:58:25;7.47;;;2.00;;
21671;SDS011;10997;52.242;8.168;2023-09-19T22:03:26;7.13;;;2.00;;
21671;SDS011;10997;52.242;8.168;2023-09-19T22:08:26;6.25;;;1.83;;
21671;SDS011;10997;52.242;8.168;2023-09-19T22:13:27;8.90;;;2.42;;
21671;SDS011;10997;52.242;8.168;2023-09-19T22:18:29;6.68;;;2.00;;
21671;SDS011;10997;52.242;8.168;2023-09-19T22:23:30;9.48;;;2.28;;
21671;SDS011;10997;52.242;8.168;2023-09-19T22:28:36;8.57;;;2.17;;
21671;SDS011;10997;52.242;8.168;2023-09-19T22:33:40;8.30;;;2.20;;
21671;SDS011;10997;52.242;8.168;2023-09-19T22:38:41;6.20;;;2.15;;
21671;SDS011;10997;52.242;8.168;2023-09-19T22:43:43;7.20;;;1.90;;
21671;SDS011;10997;52.242;8.168;2023-09-19T22:48:48;6.05;;;1.90;;
21671;SDS011;10997;52.242;8.168;2023-09-19T22:53:50;5.57;;;1.92;;
21671;SDS011;10997;52.242;8.168;2023-09-19T22:58:57;8.68;;;2.30;;
21671;SDS011;10997;52.242;8.168;2023-09-19T23:03:58;7.25;;;2.15;;
21671;SDS011;10997;52.242;8.168;2023-09-19T23:09:11;11.32;;;2.35;;
21671;SDS011;10997;52.242;8.168;2023-09-19T23:14:21;7.72;;;2.10;;
21671;SDS011;10997;52.242;8.168;2023-09-19T23:19:29;6.03;;;1.80;;
21671;SDS011;10997;52.242;8.168;2023-09-19T23:24:30;7.15;;;1.70;;
21671;SDS011;10997;52.242;8.168;2023-09-19T23:29:33;8.93;;;2.25;;
21671;SDS011;10997;52.242;8.168;2023-09-19T23:34:35;9.00;;;2.50;;
21671;SDS011;10997;52.242;8.168;2023-09-19T23:39:36;7.28;;;1.90;;
21671;SDS011;10997;52.242;8.168;2023-09-19T23:44:41;7.20;;;2.63;;
21671;SDS011;10997;52.242;8.168;2023-09-19T23:49:41;5.72;;;2.08;;
21671;SDS011;10997;52.242;8.168;2023-09-19T23:54:42;6.72;;;2.15;;
21671;SDS011;10997;52.242;8.168;2023-09-19T23:59:44;9.05;;;2.05;;
